createdAt,value
2022-10-06T00:01:22.343Z,9.40
2022-10-06T00:03:51.014Z,6.88
2022-10-06T00:06:20.622Z,9.95
2022-10-06T00:08:49.706Z,8.43
2022-10-06T00:11:18.439Z,9.95
2022-10-06T00:13:47.409Z,8.90
2022-10-06T00:16:23.547Z,9.48
2022-10-06T00:18:52.470Z,7.68
2022-10-06T00:21:21.277Z,7.40
2022-10-06T00:23:49.947Z,9.02
2022-10-06T00:26:18.555Z,7.72
2022-10-06T00:28:48.875Z,8.23
2022-10-06T00:31:20.426Z,6.95
2022-10-06T00:33:51.346Z,8.02
2022-10-06T00:36:21.198Z,8.18
2022-10-06T00:38:51.659Z,8.27
2022-10-06T00:41:20.348Z,6.78
2022-10-06T00:43:52.531Z,9.80
2022-10-06T00:46:35.047Z,7.78
2022-10-06T00:49:14.829Z,6.68
2022-10-06T00:51:49.412Z,7.32
2022-10-06T00:54:20.684Z,7.03
2022-10-06T00:56:49.766Z,7.05
2022-10-06T00:59:20.358Z,6.57
2022-10-06T01:01:57.700Z,6.32
2022-10-06T01:04:28.254Z,8.02
2022-10-06T01:07:01.773Z,8.48
2022-10-06T01:09:32.591Z,6.80
2022-10-06T01:12:06.396Z,7.05
2022-10-06T01:14:37.846Z,6.53
2022-10-06T01:17:15.328Z,5.43
2022-10-06T01:19:53.716Z,6.30
2022-10-06T01:22:30.697Z,6.50
2022-10-06T01:24:59.902Z,5.95
2022-10-06T01:27:33.017Z,6.10
2022-10-06T01:30:03.200Z,5.45
2022-10-06T01:32:37.209Z,6.15
2022-10-06T01:35:09.928Z,7.80
2022-10-06T01:37:40.106Z,5.82
2022-10-06T01:40:10.144Z,5.80
2022-10-06T01:42:39.339Z,7.68
2022-10-06T01:45:09.860Z,5.57
2022-10-06T01:47:38.693Z,6.80
2022-10-06T01:50:09.100Z,7.60
2022-10-06T01:52:39.701Z,6.90
2022-10-06T01:55:10.821Z,6.50
2022-10-06T01:57:40.977Z,6.15
2022-10-06T02:00:12.970Z,6.85
2022-10-06T02:02:42.236Z,7.55
2022-10-06T02:05:11.589Z,6.03
2022-10-06T02:07:47.593Z,5.60
2022-10-06T02:10:18.091Z,7.07
2022-10-06T02:12:52.846Z,6.20
2022-10-06T02:15:23.411Z,7.40
2022-10-06T02:17:53.839Z,5.63
2022-10-06T02:20:23.511Z,7.05
2022-10-06T02:22:53.488Z,6.22
2022-10-06T02:25:22.375Z,5.70
2022-10-06T02:27:51.143Z,7.03
2022-10-06T02:30:20.193Z,5.35
2022-10-06T02:32:49.305Z,4.72
2022-10-06T02:35:18.398Z,6.38
2022-10-06T02:37:47.087Z,5.00
2022-10-06T02:40:21.511Z,5.72
2022-10-06T02:42:50.186Z,7.63
2022-10-06T02:45:21.895Z,6.93
2022-10-06T02:47:51.855Z,4.70
2022-10-06T02:50:20.726Z,5.38
2022-10-06T02:52:49.625Z,5.30
2022-10-06T02:55:18.351Z,6.03
2022-10-06T02:57:48.291Z,6.07
2022-10-06T03:00:17.217Z,4.63
2022-10-06T03:02:49.888Z,6.15
2022-10-06T03:05:18.745Z,6.60
2022-10-06T03:07:48.448Z,5.40
2022-10-06T03:10:17.805Z,5.68
2022-10-06T03:12:47.949Z,6.18
2022-10-06T03:15:16.731Z,5.85
2022-10-06T03:17:49.931Z,8.50
2022-10-06T03:20:18.757Z,7.75
2022-10-06T03:22:47.513Z,7.72
2022-10-06T03:25:17.998Z,4.88
2022-10-06T03:27:48.506Z,7.90
2022-10-06T03:30:18.106Z,4.47
2022-10-06T03:32:47.709Z,6.03
2022-10-06T03:35:16.791Z,5.82
2022-10-06T03:37:46.088Z,8.20
2022-10-06T03:40:15.917Z,6.38
2022-10-06T03:42:44.807Z,5.82
2022-10-06T03:45:15.141Z,4.10
2022-10-06T03:47:43.737Z,6.07
2022-10-06T03:50:12.695Z,5.68
2022-10-06T03:52:41.289Z,6.40
2022-10-06T03:55:11.992Z,7.68
2022-10-06T03:57:42.451Z,4.57
2022-10-06T04:00:14.891Z,4.93
2022-10-06T04:02:44.304Z,5.63
2022-10-06T04:05:12.894Z,7.07
2022-10-06T04:07:41.710Z,4.43
2022-10-06T04:10:11.481Z,5.75
2022-10-06T04:12:40.136Z,5.82
2022-10-06T04:15:10.326Z,5.47
2022-10-06T04:17:40.259Z,5.30
2022-10-06T04:20:09.372Z,6.18
2022-10-06T04:22:38.230Z,5.00
2022-10-06T04:25:08.501Z,6.20
2022-10-06T04:27:37.185Z,8.05
2022-10-06T04:30:11.418Z,5.65
2022-10-06T04:32:42.458Z,6.32
2022-10-06T04:35:13.006Z,5.35
2022-10-06T04:37:41.718Z,6.75
2022-10-06T04:40:11.443Z,7.93
2022-10-06T04:42:41.380Z,4.80
2022-10-06T04:45:14.458Z,8.32
2022-10-06T04:47:45.789Z,7.50
2022-10-06T04:50:14.778Z,5.55
2022-10-06T04:53:02.298Z,4.45
2022-10-06T04:55:30.960Z,6.80
2022-10-06T04:57:59.917Z,8.25
2022-10-06T05:00:29.028Z,7.22
2022-10-06T05:03:00.262Z,8.52
2022-10-06T05:05:29.409Z,5.07
2022-10-06T05:07:59.187Z,5.15
2022-10-06T05:10:28.565Z,5.47
2022-10-06T05:12:58.019Z,5.07
2022-10-06T05:15:28.168Z,6.80
2022-10-06T05:17:56.970Z,5.88
2022-10-06T05:20:27.175Z,5.65
2022-10-06T05:22:56.045Z,6.75
2022-10-06T05:25:25.291Z,7.18
2022-10-06T05:27:53.859Z,6.78
2022-10-06T05:30:22.594Z,6.32
2022-10-06T05:32:52.247Z,5.70
2022-10-06T05:35:21.382Z,5.30
2022-10-06T05:37:51.778Z,5.57
2022-10-06T05:40:20.660Z,6.07
2022-10-06T05:42:49.596Z,5.32
2022-10-06T05:45:18.266Z,6.43
2022-10-06T05:47:47.144Z,6.60
2022-10-06T05:50:16.844Z,8.20
2022-10-06T05:52:45.648Z,8.00
2022-10-06T05:55:15.922Z,13.15
2022-10-06T05:57:44.559Z,11.25
2022-10-06T06:00:14.274Z,6.45
2022-10-06T06:02:44.764Z,7.63
2022-10-06T06:05:15.695Z,6.45
2022-10-06T06:07:44.371Z,8.00
2022-10-06T06:10:12.967Z,7.55
2022-10-06T06:12:43.128Z,7.68
2022-10-06T06:16:09.876Z,7.80
2022-10-06T06:18:38.873Z,8.95
2022-10-06T06:21:11.967Z,7.38
2022-10-06T06:23:44.308Z,7.63
2022-10-06T06:26:16.242Z,6.22
2022-10-06T06:28:50.952Z,7.93
2022-10-06T06:31:23.602Z,6.68
2022-10-06T06:33:57.207Z,5.10
2022-10-06T06:36:32.683Z,6.65
2022-10-06T06:39:01.626Z,7.07
2022-10-06T06:41:32.912Z,5.18
2022-10-06T06:44:18.517Z,7.35
2022-10-06T06:47:03.135Z,6.90
2022-10-06T06:49:32.170Z,7.65
2022-10-06T06:52:05.978Z,5.35
2022-10-06T06:54:36.959Z,9.35
2022-10-06T06:57:14.998Z,6.07
2022-10-06T06:59:45.645Z,7.63
2022-10-06T07:02:17.089Z,6.35
2022-10-06T07:04:47.743Z,6.10
2022-10-06T07:07:19.572Z,7.40
2022-10-06T07:09:48.241Z,4.20
2022-10-06T07:12:18.911Z,5.28
2022-10-06T07:15:11.798Z,5.90
2022-10-06T07:18:01.068Z,5.63
2022-10-06T07:20:48.621Z,5.40
2022-10-06T07:23:39.174Z,5.50
2022-10-06T07:26:14.961Z,10.65
2022-10-06T07:28:44.283Z,5.88
2022-10-06T07:31:17.717Z,6.25
2022-10-06T07:33:46.954Z,5.88
2022-10-06T07:36:16.861Z,6.80
2022-10-06T07:38:47.361Z,4.70
2022-10-06T07:41:20.606Z,5.80
2022-10-06T07:43:59.354Z,7.95
2022-10-06T07:46:33.797Z,6.63
2022-10-06T07:49:18.294Z,5.43
2022-10-06T07:51:47.616Z,8.35
2022-10-06T07:54:16.382Z,7.75
2022-10-06T07:57:05.264Z,6.82
2022-10-06T07:59:35.205Z,6.45
2022-10-06T08:02:05.198Z,4.97
2022-10-06T08:04:34.057Z,7.88
2022-10-06T08:07:02.844Z,5.25
2022-10-06T08:09:31.684Z,5.72
2022-10-06T08:12:20.648Z,6.88
2022-10-06T08:14:49.211Z,11.10
2022-10-06T08:17:19.407Z,6.65
2022-10-06T08:19:48.661Z,5.15
2022-10-06T08:22:17.235Z,6.60
2022-10-06T08:25:04.814Z,5.03
2022-10-06T08:27:35.589Z,8.35
2022-10-06T08:30:05.667Z,6.10
2022-10-06T08:32:36.035Z,5.43
2022-10-06T08:35:04.997Z,6.15
2022-10-06T08:37:33.823Z,5.78
2022-10-06T08:40:02.475Z,7.72
2022-10-06T08:42:42.638Z,5.63
2022-10-06T08:45:18.132Z,5.30
2022-10-06T08:48:01.047Z,4.80
2022-10-06T08:50:38.965Z,7.55
2022-10-06T08:53:22.397Z,7.70
2022-10-06T08:56:04.903Z,5.70
2022-10-06T08:58:52.684Z,3.97
2022-10-06T09:01:26.058Z,4.97
2022-10-06T09:04:02.044Z,4.00
2022-10-06T09:06:45.780Z,7.45
2022-10-06T09:09:33.649Z,6.85
2022-10-06T09:12:18.573Z,5.05
2022-10-06T09:14:52.369Z,4.72
2022-10-06T09:17:31.604Z,5.75
2022-10-06T09:20:09.467Z,7.95
2022-10-06T09:22:39.498Z,7.40
2022-10-06T09:25:20.149Z,6.03
2022-10-06T09:27:55.604Z,9.25
2022-10-06T09:30:25.602Z,6.72
2022-10-06T09:33:00.550Z,7.22
2022-10-06T09:35:33.521Z,4.95
2022-10-06T09:38:08.544Z,6.07
2022-10-06T09:40:49.735Z,6.72
2022-10-06T09:43:25.727Z,6.15
2022-10-06T09:45:55.356Z,7.97
2022-10-06T09:48:27.319Z,5.57
2022-10-06T09:51:15.079Z,5.30
2022-10-06T09:53:45.797Z,7.10
2022-10-06T09:56:19.404Z,7.10
2022-10-06T09:58:57.416Z,5.45
2022-10-06T10:01:29.539Z,6.00
2022-10-06T10:04:21.034Z,8.60
2022-10-06T10:06:52.098Z,6.85
2022-10-06T10:09:41.820Z,7.82
2022-10-06T10:12:27.734Z,6.13
2022-10-06T10:15:01.406Z,5.93
2022-10-06T10:17:53.711Z,6.38
2022-10-06T10:20:34.370Z,4.00
2022-10-06T10:23:21.968Z,4.72
2022-10-06T10:26:18.892Z,5.63
2022-10-06T10:29:36.738Z,5.82
2022-10-06T10:32:15.934Z,8.70
2022-10-06T10:35:07.655Z,6.13
2022-10-06T10:37:45.220Z,5.07
2022-10-06T10:40:30.057Z,6.63
2022-10-06T10:43:13.686Z,8.02
2022-10-06T10:45:49.586Z,6.30
2022-10-06T10:48:30.561Z,6.75
2022-10-06T10:51:08.053Z,7.05
2022-10-06T10:53:48.660Z,7.13
2022-10-06T10:56:24.007Z,6.28
2022-10-06T10:59:01.998Z,5.68
2022-10-06T11:01:40.394Z,5.88
2022-10-06T11:04:13.396Z,6.30
2022-10-06T11:07:21.335Z,8.02
2022-10-06T11:10:01.685Z,7.20
2022-10-06T11:13:05.563Z,7.20
2022-10-06T11:15:55.332Z,11.95
2022-10-06T11:18:42.020Z,7.60
2022-10-06T11:21:17.412Z,4.43
2022-10-06T11:23:54.629Z,8.27
2022-10-06T11:27:10.679Z,5.18
2022-10-06T11:29:55.363Z,5.30
2022-10-06T11:32:31.349Z,5.82
2022-10-06T11:35:00.871Z,6.28
2022-10-06T11:37:46.917Z,5.28
2022-10-06T11:40:42.299Z,5.97
2022-10-06T11:43:28.930Z,4.20
2022-10-06T11:46:15.095Z,6.03
2022-10-06T11:48:43.966Z,6.93
2022-10-06T11:51:32.449Z,3.78
2022-10-06T11:54:01.319Z,5.00
2022-10-06T11:56:39.931Z,5.07
2022-10-06T11:59:31.397Z,6.30
2022-10-06T12:02:03.068Z,6.25
2022-10-06T12:04:32.191Z,6.22
2022-10-06T12:07:06.328Z,3.60
2022-10-06T12:09:53.395Z,4.88
2022-10-06T12:13:01.808Z,5.75
2022-10-06T12:19:23.317Z,4.05
2022-10-06T12:22:08.168Z,4.00
2022-10-06T12:24:44.938Z,2.92
2022-10-06T12:27:32.292Z,4.43
2022-10-06T12:30:07.440Z,6.38
2022-10-06T12:32:52.452Z,5.78
2022-10-06T12:35:34.724Z,3.33
2022-10-06T12:38:07.864Z,3.53
2022-10-06T12:40:47.051Z,4.90
2022-10-06T12:44:00.666Z,3.95
2022-10-06T12:46:44.681Z,4.22
2022-10-06T12:49:41.404Z,4.85
2022-10-06T12:52:43.347Z,3.92
2022-10-06T12:55:34.683Z,3.50
2022-10-06T12:58:03.248Z,4.85
2022-10-06T13:00:37.050Z,4.75
2022-10-06T13:03:09.029Z,6.13
2022-10-06T13:05:38.563Z,5.07
2022-10-06T13:08:23.604Z,7.22
2022-10-06T13:10:52.638Z,5.00
2022-10-06T13:13:24.945Z,5.47
2022-10-06T13:16:00.643Z,4.55
2022-10-06T13:18:30.303Z,4.28
2022-10-06T13:21:01.829Z,4.85
2022-10-06T13:23:34.077Z,3.03
2022-10-06T13:26:05.793Z,4.95
2022-10-06T13:28:49.392Z,4.95
2022-10-06T13:31:24.677Z,2.88
2022-10-06T13:34:00.861Z,4.32
2022-10-06T13:36:31.938Z,3.55
2022-10-06T13:39:05.016Z,3.88
2022-10-06T13:41:37.596Z,3.35
2022-10-06T13:44:31.718Z,2.83
2022-10-06T13:47:05.238Z,2.42
2022-10-06T13:49:48.687Z,2.25
2022-10-06T13:52:21.699Z,2.70
2022-10-06T13:54:55.742Z,2.67
2022-10-06T13:57:41.407Z,4.78
2022-10-06T14:00:23.745Z,5.55
2022-10-06T14:02:56.665Z,2.40
2022-10-06T14:05:32.868Z,5.05
2022-10-06T14:08:04.907Z,7.60
2022-10-06T14:10:47.579Z,4.45
2022-10-06T14:13:21.372Z,3.38
2022-10-06T14:15:53.098Z,2.55
2022-10-06T14:18:26.060Z,3.65
2022-10-06T14:20:57.193Z,1.83
2022-10-06T14:23:50.494Z,4.95
2022-10-06T14:26:28.088Z,4.18
2022-10-06T14:28:58.556Z,5.85
2022-10-06T14:31:29.488Z,2.75
2022-10-06T14:33:58.538Z,3.75
2022-10-06T14:36:29.866Z,4.22
2022-10-06T14:39:00.764Z,3.40
2022-10-06T14:41:31.440Z,4.97
2022-10-06T14:44:03.027Z,3.42
2022-10-06T14:46:32.030Z,2.95
2022-10-06T14:49:03.262Z,2.10
2022-10-06T14:51:36.602Z,3.53
2022-10-06T14:54:07.761Z,3.80
2022-10-06T14:56:39.416Z,2.35
2022-10-06T14:59:12.000Z,2.45
2022-10-06T15:01:41.167Z,2.75
2022-10-06T15:04:12.372Z,3.75
2022-10-06T15:07:00.388Z,5.95
2022-10-06T15:09:31.017Z,3.45
2022-10-06T15:12:01.838Z,3.67
2022-10-06T15:14:31.164Z,3.97
2022-10-06T15:17:00.339Z,3.63
2022-10-06T15:19:29.555Z,1.98
2022-10-06T15:21:58.400Z,4.18
2022-10-06T15:24:27.221Z,4.32
2022-10-06T15:27:13.271Z,2.85
2022-10-06T15:29:43.438Z,2.95
2022-10-06T15:32:11.996Z,2.53
2022-10-06T15:34:40.612Z,5.20
2022-10-06T15:37:09.370Z,2.65
2022-10-06T15:39:38.603Z,4.20
2022-10-06T15:42:08.722Z,4.82
2022-10-06T15:44:38.069Z,2.53
2022-10-06T15:47:08.975Z,2.00
2022-10-06T15:49:41.633Z,2.97
2022-10-06T15:52:13.284Z,4.80
2022-10-06T15:54:43.860Z,1.67
2022-10-06T15:57:19.726Z,6.18
2022-10-06T15:59:50.012Z,4.18
2022-10-06T16:02:22.373Z,4.82
2022-10-06T16:05:17.374Z,5.00
2022-10-06T16:07:46.310Z,5.43
2022-10-06T16:10:15.213Z,4.15
2022-10-06T16:12:43.806Z,6.07
2022-10-06T16:15:12.616Z,3.72
2022-10-06T16:17:42.536Z,3.88
2022-10-06T16:20:11.667Z,3.83
2022-10-06T16:22:41.205Z,2.42
2022-10-06T16:25:10.654Z,6.47
2022-10-06T16:27:39.550Z,3.75
2022-10-06T16:30:10.161Z,4.75
2022-10-06T16:32:38.953Z,5.50
2022-10-06T16:35:13.578Z,4.60
2022-10-06T16:37:50.026Z,4.18
2022-10-06T16:40:19.030Z,3.90
2022-10-06T16:42:47.594Z,6.25
2022-10-06T16:45:16.816Z,5.25
2022-10-06T16:47:45.584Z,5.03
2022-10-06T16:50:15.727Z,5.25
2022-10-06T16:52:44.312Z,5.82
2022-10-06T16:55:13.234Z,5.07
2022-10-06T16:57:41.859Z,4.43
2022-10-06T17:00:13.019Z,5.53
2022-10-06T17:02:42.121Z,4.82
2022-10-06T17:05:10.846Z,6.22
2022-10-06T17:07:40.846Z,5.93
2022-10-06T17:10:25.564Z,7.57
2022-10-06T17:12:54.163Z,7.68
2022-10-06T17:15:23.025Z,7.35
2022-10-06T17:17:51.586Z,6.35
2022-10-06T17:20:20.361Z,6.75
2022-10-06T17:22:51.477Z,7.25
2022-10-06T17:25:20.118Z,5.40
2022-10-06T17:27:48.875Z,5.88
2022-10-06T17:30:17.541Z,7.55
2022-10-06T17:32:47.364Z,9.55
2022-10-06T17:35:16.783Z,9.73
2022-10-06T17:37:46.192Z,8.70
2022-10-06T17:40:16.379Z,9.07
2022-10-06T17:42:45.175Z,8.05
2022-10-06T17:45:17.650Z,9.93
2022-10-06T17:47:49.152Z,9.30
2022-10-06T17:50:17.966Z,8.75
2022-10-06T17:52:48.040Z,10.07
2022-10-06T17:55:18.427Z,9.57
2022-10-06T17:57:46.992Z,8.77
2022-10-06T18:00:18.204Z,10.02
2022-10-06T18:02:47.019Z,9.70
2022-10-06T18:05:16.094Z,12.98
2022-10-06T18:07:44.671Z,10.45
2022-10-06T18:10:32.633Z,10.32
2022-10-06T18:13:02.616Z,12.05
2022-10-06T18:15:36.326Z,15.75
2022-10-06T18:18:05.737Z,15.82
2022-10-06T18:20:40.095Z,18.67
2022-10-06T18:23:09.529Z,17.58
2022-10-06T18:25:38.264Z,19.10
2022-10-06T18:28:08.684Z,18.48
2022-10-06T18:30:37.380Z,17.60
2022-10-06T18:36:14.822Z,24.40
2022-10-06T18:38:47.074Z,24.80
2022-10-06T18:41:19.401Z,27.30
2022-10-06T18:43:50.325Z,25.40
2022-10-06T18:46:37.218Z,28.67
2022-10-06T18:49:12.117Z,26.75
2022-10-06T18:51:43.001Z,27.60
2022-10-06T18:54:15.332Z,26.98
2022-10-06T18:56:49.976Z,27.65
2022-10-06T18:59:23.374Z,26.02
2022-10-06T19:01:52.363Z,25.85
2022-10-06T19:04:23.735Z,24.70
2022-10-06T19:06:54.846Z,22.52
2022-10-06T19:09:25.783Z,25.55
2022-10-06T19:11:57.902Z,25.05
2022-10-06T19:14:31.663Z,25.55
2022-10-06T19:17:03.413Z,23.35
2022-10-06T19:19:34.029Z,25.08
2022-10-06T19:22:05.218Z,26.67
2022-10-06T19:24:37.222Z,22.13
2022-10-06T19:27:12.230Z,26.67
2022-10-06T19:29:46.171Z,22.83
2022-10-06T19:32:18.697Z,20.70
2022-10-06T19:34:48.513Z,21.45
2022-10-06T19:37:17.952Z,22.20
2022-10-06T19:39:50.261Z,25.45
2022-10-06T19:42:38.357Z,23.83
2022-10-06T19:45:11.823Z,26.20
2022-10-06T19:47:41.485Z,27.52
2022-10-06T19:50:12.640Z,23.90
2022-10-06T19:52:42.392Z,26.15
2022-10-06T19:55:11.165Z,25.65
2022-10-06T19:57:39.708Z,25.10
2022-10-06T20:00:11.991Z,25.40
2022-10-06T20:02:44.280Z,26.25
2022-10-06T20:05:15.925Z,26.05
2022-10-06T20:07:47.670Z,25.85
2022-10-06T20:10:17.127Z,21.95
2022-10-06T20:12:45.825Z,23.63
2022-10-06T20:15:15.748Z,24.58
2022-10-06T20:17:45.561Z,21.27
2022-10-06T20:20:15.250Z,22.23
2022-10-06T20:22:43.935Z,25.50
2022-10-06T20:25:12.708Z,23.27
2022-10-06T20:27:41.613Z,26.45
2022-10-06T20:30:11.517Z,22.83
2022-10-06T20:32:42.320Z,23.27
2022-10-06T20:35:10.906Z,22.05
2022-10-06T20:37:42.048Z,23.67
2022-10-06T20:40:29.037Z,23.73
2022-10-06T20:42:59.457Z,21.88
2022-10-06T20:45:29.806Z,22.40
2022-10-06T20:48:00.144Z,21.63
2022-10-06T20:50:31.330Z,26.30
2022-10-06T20:52:59.876Z,24.13
2022-10-06T20:55:28.442Z,21.58
2022-10-06T20:57:57.219Z,22.88
2022-10-06T21:00:25.819Z,23.10
2022-10-06T21:02:54.562Z,22.17
2022-10-06T21:05:24.790Z,22.90
2022-10-06T21:07:53.432Z,22.85
2022-10-06T21:10:23.049Z,22.67
2022-10-06T21:12:51.840Z,21.83
2022-10-06T21:15:20.443Z,24.83
2022-10-06T21:17:49.181Z,21.58
2022-10-06T21:20:18.416Z,21.10
2022-10-06T21:22:48.474Z,22.67
2022-10-06T21:25:17.359Z,22.92
2022-10-06T21:27:47.314Z,23.73
2022-10-06T21:30:16.113Z,22.67
2022-10-06T21:32:44.676Z,25.77
2022-10-06T21:35:13.463Z,24.45
2022-10-06T21:37:42.318Z,23.63
2022-10-06T21:40:12.958Z,26.17
2022-10-06T21:42:41.784Z,27.92
2022-10-06T21:45:11.288Z,22.48
2022-10-06T21:47:39.902Z,24.98
2022-10-06T21:50:09.911Z,23.92
2022-10-06T21:52:38.507Z,27.25
2022-10-06T21:55:08.616Z,25.52
2022-10-06T21:57:38.571Z,24.63
2022-10-06T22:00:11.170Z,28.02
2022-10-06T22:02:42.049Z,28.85
2022-10-06T22:05:10.939Z,28.63
2022-10-06T22:07:39.516Z,26.60
2022-10-06T22:10:09.110Z,25.30
2022-10-06T22:12:39.044Z,29.48
2022-10-06T22:15:08.484Z,30.00
2022-10-06T22:17:37.222Z,26.65
2022-10-06T22:20:07.456Z,26.13
2022-10-06T22:22:36.249Z,25.95
2022-10-06T22:25:05.917Z,25.95
2022-10-06T22:27:34.543Z,23.23
2022-10-06T22:30:05.481Z,28.23
2022-10-06T22:32:34.286Z,27.85
2022-10-06T22:35:03.379Z,23.30
2022-10-06T22:37:32.044Z,21.27
2022-10-06T22:40:05.361Z,23.65
2022-10-06T22:42:35.992Z,28.48
2022-10-06T22:45:07.704Z,21.92
2022-10-06T22:47:36.283Z,23.40
2022-10-06T22:50:07.318Z,22.98
2022-10-06T22:52:36.082Z,27.25
2022-10-06T22:55:05.299Z,24.23
2022-10-06T22:57:33.938Z,22.38
2022-10-06T23:00:02.751Z,23.50
2022-10-06T23:02:33.576Z,28.23
2022-10-06T23:05:02.150Z,30.67
2022-10-06T23:07:31.228Z,31.95
2022-10-06T23:09:59.883Z,38.25
2022-10-06T23:12:28.529Z,35.53
2022-10-06T23:14:57.386Z,36.90
2022-10-06T23:17:25.931Z,36.63
2022-10-06T23:19:55.880Z,34.33
2022-10-06T23:22:24.744Z,31.77
2022-10-06T23:24:53.547Z,33.67
2022-10-06T23:27:22.127Z,31.77
2022-10-06T23:29:50.939Z,27.42
2022-10-06T23:32:19.912Z,34.13
2022-10-06T23:34:48.677Z,29.35
2022-10-06T23:37:18.851Z,29.35
2022-10-06T23:39:47.502Z,31.95
2022-10-06T23:42:16.205Z,27.27
2022-10-06T23:44:45.009Z,25.45
2022-10-06T23:47:13.588Z,26.27
2022-10-06T23:49:43.657Z,22.55
2022-10-06T23:52:12.570Z,23.55
2022-10-06T23:54:42.473Z,22.52
2022-10-06T23:57:11.091Z,23.10
2022-10-06T23:59:39.835Z,22.35
